createdAt,value
2019-04-21T00:01:57.824Z,13.80
2019-04-21T00:04:38.024Z,13.80
2019-04-21T00:07:15.368Z,13.90
2019-04-21T00:12:19.672Z,13.80
2019-04-21T00:14:39.558Z,13.70
2019-04-21T00:17:03.583Z,13.70
2019-04-21T00:19:33.191Z,13.50
2019-04-21T00:22:08.615Z,13.30
2019-04-21T00:24:44.324Z,13.10
2019-04-21T00:27:18.746Z,13.10
2019-04-21T00:29:49.778Z,13.40
2019-04-21T00:32:16.587Z,13.50
2019-04-21T00:34:30.272Z,13.50
2019-04-21T00:37:11.291Z,13.50
2019-04-21T00:39:58.792Z,13.50
2019-04-21T00:42:18.105Z,13.60
2019-04-21T00:44:44.177Z,13.60
2019-04-21T00:47:25.090Z,13.50
2019-04-21T00:49:52.648Z,13.50
2019-04-21T00:52:47.636Z,13.40
2019-04-21T00:55:17.710Z,13.60
2019-04-21T00:57:38.887Z,13.60
2019-04-21T01:00:10.191Z,13.50
2019-04-21T01:02:40.168Z,13.40
2019-04-21T01:05:07.434Z,13.50
2019-04-21T01:07:31.563Z,13.40
2019-04-21T01:09:55.819Z,13.30
2019-04-21T01:12:33.422Z,13.40
2019-04-21T01:15:09.246Z,13.40
2019-04-21T01:17:35.730Z,13.50
2019-04-21T01:19:57.479Z,13.50
2019-04-21T01:22:12.903Z,13.50
2019-04-21T01:24:45.282Z,13.60
2019-04-21T01:27:24.046Z,13.50
2019-04-21T01:30:01.216Z,13.40
2019-04-21T01:32:39.012Z,13.40
2019-04-21T01:35:05.251Z,13.30
2019-04-21T01:37:40.847Z,13.40
2019-04-21T01:40:09.734Z,13.30
2019-04-21T01:42:31.657Z,13.30
2019-04-21T01:45:04.334Z,13.30
2019-04-21T01:47:37.590Z,13.20
2019-04-21T01:49:59.496Z,13.20
2019-04-21T01:52:43.953Z,13.20
2019-04-21T01:55:13.803Z,13.30
2019-04-21T01:57:42.543Z,13.30
2019-04-21T02:00:13.294Z,13.20
2019-04-21T02:02:54.959Z,13.20
2019-04-21T02:05:28.381Z,13.10
2019-04-21T02:07:49.483Z,12.80
2019-04-21T02:10:26.691Z,12.70
2019-04-21T02:12:50.945Z,12.60
2019-04-21T02:15:25.047Z,12.50
2019-04-21T02:17:53.719Z,12.50
2019-04-21T02:20:15.301Z,12.50
2019-04-21T02:23:13.005Z,12.50
2019-04-21T02:25:26.322Z,12.40
2019-04-21T02:27:57.531Z,12.40
2019-04-21T02:30:40.676Z,12.40
2019-04-21T02:33:13.607Z,12.50
2019-04-21T02:35:40.596Z,12.60
2019-04-21T02:40:48.099Z,12.50
2019-04-21T02:43:13.239Z,12.30
2019-04-21T02:45:37.813Z,12.10
2019-04-21T02:48:09.780Z,11.90
2019-04-21T02:50:37.619Z,11.80
2019-04-21T02:53:09.539Z,11.70
2019-04-21T02:55:42.333Z,11.70
2019-04-21T02:58:25.524Z,11.60
2019-04-21T03:01:07.706Z,11.40
2019-04-21T03:06:15.438Z,11.30
2019-04-21T03:08:50.093Z,11.20
2019-04-21T03:13:48.634Z,11.30
2019-04-21T03:18:48.527Z,11.20
2019-04-21T03:21:16.195Z,11.40
2019-04-21T03:23:58.340Z,11.30
2019-04-21T03:31:39.306Z,11.20
2019-04-21T03:36:43.897Z,11.10
2019-04-21T03:39:13.768Z,11.10
2019-04-21T03:41:37.749Z,11.20
2019-04-21T03:44:10.029Z,11.10
2019-04-21T03:46:41.671Z,11.00
2019-04-21T03:49:11.842Z,10.90
2019-04-21T03:51:37.721Z,10.80
2019-04-21T03:54:13.774Z,10.80
2019-04-21T04:01:51.014Z,10.50
2019-04-21T04:07:03.988Z,10.30
2019-04-21T04:11:51.123Z,10.10
2019-04-21T04:19:26.337Z,10.40
2019-04-21T04:22:07.839Z,10.30
2019-04-21T04:31:57.054Z,10.50
2019-04-21T04:34:27.383Z,10.40
2019-04-21T04:42:27.160Z,10.20
2019-04-21T04:47:16.689Z,10.10
2019-04-21T04:52:27.643Z,9.90
2019-04-21T04:54:52.883Z,9.80
2019-04-21T04:57:22.156Z,9.80
2019-04-21T05:00:00.490Z,9.90
2019-04-21T05:02:27.799Z,10.00
2019-04-21T05:09:57.563Z,10.10
2019-04-21T05:12:11.995Z,10.10
2019-04-21T05:14:46.637Z,10.00
2019-04-21T05:17:26.669Z,9.90
2019-04-21T05:22:17.301Z,10.50
2019-04-21T05:24:38.955Z,10.80
2019-04-21T05:27:08.625Z,11.00
2019-04-21T05:29:49.150Z,11.20
2019-04-21T05:34:42.954Z,11.40
2019-04-21T05:37:37.127Z,11.20
2019-04-21T05:40:00.647Z,11.10
2019-04-21T05:42:36.411Z,10.80
2019-04-21T05:45:17.447Z,10.80
2019-04-21T05:47:49.529Z,11.10
2019-04-21T05:50:14.957Z,11.30
2019-04-21T05:52:51.932Z,11.60
2019-04-21T05:55:34.633Z,11.90
2019-04-21T05:57:57.239Z,12.20
2019-04-21T06:00:46.708Z,12.70
2019-04-21T06:03:05.605Z,13.20
2019-04-21T06:05:37.891Z,13.50
2019-04-21T06:08:02.540Z,13.70
2019-04-21T06:10:37.747Z,14.20
2019-04-21T06:13:09.996Z,14.70
2019-04-21T06:15:41.344Z,15.10
2019-04-21T06:18:06.446Z,15.60
2019-04-21T06:20:33.465Z,16.00
2019-04-21T06:23:03.439Z,16.10
2019-04-21T06:25:51.757Z,16.50
2019-04-21T06:28:08.991Z,16.70
2019-04-21T06:30:40.880Z,16.90
2019-04-21T06:33:12.811Z,17.40
2019-04-21T06:35:58.863Z,17.50
2019-04-21T06:38:28.617Z,17.10
2019-04-21T06:40:48.298Z,17.30
2019-04-21T06:43:28.207Z,17.20
2019-04-21T06:45:50.666Z,17.40
2019-04-21T06:48:21.120Z,17.60
2019-04-21T06:50:52.505Z,18.00
2019-04-21T06:53:20.771Z,18.00
2019-04-21T06:55:44.216Z,17.90
2019-04-21T06:58:16.885Z,18.10
2019-04-21T07:00:45.645Z,18.30
2019-04-21T07:03:20.576Z,18.60
2019-04-21T07:05:51.885Z,19.20
2019-04-21T07:08:34.680Z,19.40
2019-04-21T07:10:46.429Z,19.20
2019-04-21T07:13:15.308Z,19.00
2019-04-21T07:15:53.040Z,18.90
2019-04-21T07:18:19.403Z,18.70
2019-04-21T07:20:49.115Z,18.90
2019-04-21T07:23:15.537Z,19.20
2019-04-21T07:25:45.885Z,19.40
2019-04-21T07:28:17.561Z,19.50
2019-04-21T07:30:56.332Z,19.50
2019-04-21T07:33:47.715Z,19.40
2019-04-21T07:35:43.277Z,19.40
2019-04-21T07:38:16.759Z,19.70
2019-04-21T07:40:43.026Z,19.90
2019-04-21T07:43:10.844Z,20.30
2019-04-21T07:45:40.110Z,20.70
2019-04-21T07:48:29.728Z,20.80
2019-04-21T07:51:04.407Z,20.50
2019-04-21T07:53:51.248Z,20.50
2019-04-21T07:55:53.668Z,20.50
2019-04-21T07:58:45.526Z,20.70
2019-04-21T08:01:12.223Z,20.80
2019-04-21T08:03:38.847Z,20.90
2019-04-21T08:06:18.848Z,20.80
2019-04-21T08:08:42.328Z,20.90
2019-04-21T08:11:10.635Z,21.00
2019-04-21T08:16:12.847Z,21.60
2019-04-21T08:21:12.224Z,21.80
2019-04-21T08:23:41.466Z,21.80
2019-04-21T08:26:07.724Z,22.20
2019-04-21T08:28:47.473Z,22.00
2019-04-21T08:31:14.164Z,22.10
2019-04-21T08:33:51.433Z,22.20
2019-04-21T08:38:41.756Z,22.00
2019-04-21T08:41:15.216Z,22.00
2019-04-21T08:43:44.647Z,21.80
2019-04-21T08:46:13.831Z,22.00
2019-04-21T08:48:48.040Z,22.40
2019-04-21T08:53:50.070Z,22.70
2019-04-21T08:56:21.717Z,22.70
2019-04-21T08:58:54.949Z,23.00
2019-04-21T09:01:30.430Z,23.40
2019-04-21T09:04:13.157Z,23.40
2019-04-21T09:06:55.565Z,23.50
2019-04-21T09:09:11.830Z,23.60
2019-04-21T09:11:45.937Z,23.70
2019-04-21T09:14:12.836Z,23.40
2019-04-21T09:16:39.718Z,23.30
2019-04-21T09:19:01.982Z,23.40
2019-04-21T09:21:47.990Z,24.30
2019-04-21T09:24:14.740Z,24.50
2019-04-21T09:26:42.912Z,24.20
2019-04-21T09:29:05.999Z,24.30
2019-04-21T09:31:29.306Z,24.40
2019-04-21T09:33:57.345Z,24.80
2019-04-21T09:36:33.643Z,24.80
2019-04-21T09:39:00.021Z,25.20
2019-04-21T09:41:25.950Z,25.60
2019-04-21T09:43:57.193Z,26.00
2019-04-21T09:46:25.469Z,26.50
2019-04-21T09:49:00.867Z,26.80
2019-04-21T09:51:24.209Z,26.40
2019-04-21T09:54:00.866Z,26.50
2019-04-21T09:56:31.566Z,27.20
2019-04-21T09:59:07.228Z,28.10
2019-04-21T10:01:30.913Z,29.10
2019-04-21T10:03:59.733Z,29.50
2019-04-21T10:06:25.925Z,29.00
2019-04-21T10:08:58.699Z,28.90
2019-04-21T10:11:24.677Z,29.60
2019-04-21T10:13:53.165Z,30.00
2019-04-21T10:16:26.181Z,30.40
2019-04-21T10:18:54.714Z,31.20
2019-04-21T10:21:25.732Z,30.70
2019-04-21T10:23:54.265Z,30.20
2019-04-21T10:26:24.278Z,29.80
2019-04-21T10:28:53.035Z,29.70
2019-04-21T10:31:22.708Z,29.60
2019-04-21T10:33:52.502Z,29.20
2019-04-21T10:36:21.084Z,29.20
2019-04-21T10:38:52.235Z,28.90
2019-04-21T10:41:19.640Z,28.60
2019-04-21T10:43:49.334Z,28.80
2019-04-21T10:46:19.066Z,29.10
2019-04-21T10:48:48.567Z,29.50
2019-04-21T10:51:17.226Z,29.40
2019-04-21T10:53:50.872Z,30.00
2019-04-21T10:56:25.106Z,30.30
2019-04-21T10:59:08.016Z,30.40
2019-04-21T11:01:36.864Z,30.30
2019-04-21T11:04:17.212Z,30.70
2019-04-21T11:06:39.909Z,30.80
2019-04-21T11:09:10.773Z,30.20
2019-04-21T11:11:39.741Z,31.20
2019-04-21T11:14:10.588Z,31.60
2019-04-21T11:16:39.246Z,31.30
2019-04-21T11:19:07.840Z,31.40
2019-04-21T11:21:36.685Z,31.20
2019-04-21T11:24:06.042Z,31.40
2019-04-21T11:26:35.814Z,31.80
2019-04-21T11:29:05.223Z,31.20
2019-04-21T11:31:33.734Z,31.20
2019-04-21T11:34:03.011Z,31.20
2019-04-21T11:36:31.609Z,31.70
2019-04-21T11:39:16.336Z,31.90
2019-04-21T11:41:31.943Z,32.20
2019-04-21T11:44:01.466Z,32.40
2019-04-21T11:46:30.737Z,32.90
2019-04-21T11:49:00.056Z,32.30
2019-04-21T11:51:28.985Z,32.80
2019-04-21T11:53:59.029Z,32.70
2019-04-21T11:56:27.581Z,33.00
2019-04-21T11:58:57.564Z,32.80
2019-04-21T12:01:27.531Z,32.90
2019-04-21T12:03:56.071Z,32.00
2019-04-21T12:06:32.239Z,31.90
2019-04-21T12:08:57.680Z,32.10
2019-04-21T12:11:25.215Z,32.10
2019-04-21T12:13:54.269Z,32.40
2019-04-21T12:16:23.331Z,32.00
2019-04-21T12:18:52.422Z,32.00
2019-04-21T12:21:21.222Z,32.10
2019-04-21T12:23:50.294Z,31.20
2019-04-21T12:26:19.943Z,31.20
2019-04-21T12:28:50.026Z,31.30
2019-04-21T12:31:23.475Z,31.30
2019-04-21T12:33:56.241Z,30.20
2019-04-21T12:36:24.797Z,29.90
2019-04-21T12:38:57.737Z,29.40
2019-04-21T12:41:24.340Z,29.00
2019-04-21T12:43:53.086Z,28.80
2019-04-21T12:46:22.106Z,28.70
2019-04-21T12:48:51.631Z,28.60
2019-04-21T12:51:20.085Z,28.50
2019-04-21T12:53:49.771Z,28.60
2019-04-21T12:56:19.724Z,28.10
2019-04-21T12:58:49.066Z,27.60
2019-04-21T13:01:18.844Z,27.30
2019-04-21T13:03:47.961Z,26.90
2019-04-21T13:06:16.518Z,27.10
2019-04-21T13:08:53.586Z,26.90
2019-04-21T13:11:15.139Z,27.00
2019-04-21T13:13:43.900Z,27.00
2019-04-21T13:16:13.527Z,26.90
2019-04-21T13:18:42.167Z,26.70
2019-04-21T13:21:11.926Z,26.70
2019-04-21T13:23:41.114Z,26.60
2019-04-21T13:26:11.268Z,26.50
2019-04-21T13:28:40.425Z,26.30
2019-04-21T13:31:09.077Z,26.10
2019-04-21T13:33:37.777Z,26.00
2019-04-21T13:36:07.632Z,25.90
2019-04-21T13:38:50.489Z,26.20
2019-04-21T13:41:22.788Z,26.30
2019-04-21T13:43:41.177Z,26.50
2019-04-21T13:46:10.048Z,26.60
2019-04-21T13:48:40.021Z,26.60
2019-04-21T13:51:09.146Z,26.60
2019-04-21T13:53:37.937Z,26.50
2019-04-21T13:56:06.827Z,26.40
2019-04-21T13:58:35.391Z,26.30
2019-04-21T14:01:05.653Z,26.40
2019-04-21T14:03:35.371Z,26.40
2019-04-21T14:06:04.562Z,26.50
2019-04-21T14:08:33.530Z,26.60
2019-04-21T14:11:02.163Z,26.60
2019-04-21T14:13:30.592Z,26.50
2019-04-21T14:15:59.941Z,26.30
2019-04-21T14:18:28.911Z,26.20
2019-04-21T14:20:57.492Z,26.10
2019-04-21T14:23:34.498Z,26.10
2019-04-21T14:25:57.269Z,26.20
2019-04-21T14:28:26.116Z,26.10
2019-04-21T14:30:54.561Z,26.00
2019-04-21T14:33:23.718Z,26.20
2019-04-21T14:35:52.706Z,26.10
2019-04-21T14:38:22.669Z,26.20
2019-04-21T14:40:52.146Z,26.00
2019-04-21T14:43:21.696Z,25.80
2019-04-21T14:45:52.812Z,25.90
2019-04-21T14:48:39.293Z,25.70
2019-04-21T14:51:18.864Z,25.90
2019-04-21T14:53:49.868Z,25.90
2019-04-21T14:56:19.386Z,26.10
2019-04-21T14:58:48.788Z,26.20
2019-04-21T15:01:17.823Z,26.30
2019-04-21T15:03:47.867Z,26.20
2019-04-21T15:06:16.394Z,26.00
2019-04-21T15:08:44.972Z,25.90
2019-04-21T15:11:14.006Z,25.90
2019-04-21T15:13:43.840Z,25.90
2019-04-21T15:16:13.017Z,25.80
2019-04-21T15:18:41.668Z,25.80
2019-04-21T15:21:11.142Z,26.00
2019-04-21T15:23:40.279Z,26.00
2019-04-21T15:26:10.288Z,25.70
2019-04-21T15:28:40.629Z,25.70
2019-04-21T15:31:12.792Z,25.70
2019-04-21T15:33:39.331Z,25.60
2019-04-21T15:36:08.996Z,25.50
2019-04-21T15:38:38.100Z,25.50
2019-04-21T15:41:10.287Z,25.30
2019-04-21T15:43:36.802Z,25.20
2019-04-21T15:46:06.655Z,25.10
2019-04-21T15:48:35.295Z,25.20
2019-04-21T15:51:05.574Z,25.00
2019-04-21T15:53:37.304Z,25.10
2019-04-21T15:56:11.009Z,25.00
2019-04-21T15:58:43.979Z,25.00
2019-04-21T16:01:17.024Z,25.10
2019-04-21T16:03:46.871Z,25.00
2019-04-21T16:06:15.451Z,24.90
2019-04-21T16:08:47.626Z,24.80
2019-04-21T16:11:13.987Z,24.80
2019-04-21T16:13:43.639Z,24.80
2019-04-21T16:16:12.639Z,24.90
2019-04-21T16:18:42.508Z,24.90
2019-04-21T16:21:11.708Z,25.00
2019-04-21T16:23:40.560Z,25.00
2019-04-21T16:26:10.753Z,24.80
2019-04-21T16:28:39.633Z,24.80
2019-04-21T16:31:08.190Z,24.80
2019-04-21T16:33:36.862Z,24.70
2019-04-21T16:36:08.205Z,24.80
2019-04-21T16:38:35.717Z,24.70
2019-04-21T16:41:07.212Z,24.70
2019-04-21T16:43:35.366Z,24.60
2019-04-21T16:46:04.676Z,24.60
2019-04-21T16:48:33.773Z,24.50
2019-04-21T16:51:03.665Z,24.50
2019-04-21T16:53:37.600Z,24.50
2019-04-21T16:56:26.890Z,24.40
2019-04-21T16:58:57.148Z,24.40
2019-04-21T17:01:29.172Z,24.40
2019-04-21T17:03:58.323Z,24.30
2019-04-21T17:06:27.131Z,24.30
2019-04-21T17:08:56.743Z,24.30
2019-04-21T17:11:30.373Z,24.30
2019-04-21T17:13:56.570Z,24.20
2019-04-21T17:17:02.996Z,24.10
2019-04-21T17:19:05.215Z,24.10
2019-04-21T17:21:26.138Z,24.00
2019-04-21T17:23:56.517Z,24.00
2019-04-21T17:26:25.247Z,24.00
2019-04-21T17:28:54.347Z,23.90
2019-04-21T17:31:24.466Z,23.90
2019-04-21T17:34:02.421Z,23.90
2019-04-21T17:36:23.285Z,23.90
2019-04-21T17:38:52.267Z,23.90
2019-04-21T17:41:29.019Z,23.90
2019-04-21T17:43:52.497Z,23.90
2019-04-21T17:46:31.533Z,23.90
2019-04-21T17:48:52.625Z,23.90
2019-04-21T17:51:25.697Z,23.90
2019-04-21T17:53:59.338Z,23.90
2019-04-21T17:56:59.453Z,23.80
2019-04-21T17:59:27.977Z,23.80
2019-04-21T18:01:56.042Z,23.60
2019-04-21T18:04:25.903Z,23.50
2019-04-21T18:07:01.831Z,23.40
2019-04-21T18:09:44.832Z,23.20
2019-04-21T18:12:07.682Z,23.00
2019-04-21T18:14:22.074Z,23.00
2019-04-21T18:16:51.579Z,22.90
2019-04-21T18:19:26.265Z,22.90
2019-04-21T18:21:59.216Z,22.70
2019-04-21T18:24:38.088Z,22.80
2019-04-21T18:26:58.817Z,22.80
2019-04-21T18:29:25.610Z,22.80
2019-04-21T18:31:54.641Z,22.80
2019-04-21T18:34:44.027Z,22.80
2019-04-21T18:37:33.024Z,22.70
2019-04-21T18:40:05.316Z,22.60
2019-04-21T18:43:04.455Z,22.50
2019-04-21T18:45:50.283Z,22.40
2019-04-21T18:48:09.453Z,22.30
2019-04-21T18:50:41.770Z,22.10
2019-04-21T18:53:19.427Z,22.00
2019-04-21T18:55:45.116Z,21.80
2019-04-21T18:58:11.952Z,21.70
2019-04-21T19:00:42.207Z,21.50
2019-04-21T19:03:11.783Z,21.40
2019-04-21T19:05:45.739Z,21.40
2019-04-21T19:08:26.488Z,21.40
2019-04-21T19:11:05.377Z,21.30
2019-04-21T19:16:22.862Z,21.00
2019-04-21T19:20:53.777Z,20.90
2019-04-21T19:23:39.153Z,20.90
2019-04-21T19:26:09.964Z,20.70
2019-04-21T19:28:36.467Z,20.40
2019-04-21T19:31:07.709Z,20.40
2019-04-21T19:33:24.161Z,20.30
2019-04-21T19:35:41.590Z,20.10
2019-04-21T19:38:13.673Z,20.10
2019-04-21T19:40:52.236Z,20.10
2019-04-21T19:43:31.502Z,20.10
2019-04-21T19:45:54.101Z,20.20
2019-04-21T19:48:27.521Z,20.10
2019-04-21T19:51:04.309Z,19.90
2019-04-21T19:53:24.331Z,19.80
2019-04-21T19:55:42.326Z,19.80
2019-04-21T19:58:10.912Z,19.60
2019-04-21T20:00:40.215Z,19.60
2019-04-21T20:03:10.367Z,19.50
2019-04-21T20:05:47.635Z,19.30
2019-04-21T20:08:23.685Z,19.20
2019-04-21T20:11:01.179Z,19.10
2019-04-21T20:13:40.769Z,19.00
2019-04-21T20:15:57.124Z,19.00
2019-04-21T20:18:21.177Z,18.80
2019-04-21T20:20:41.107Z,18.70
2019-04-21T20:23:19.313Z,18.70
2019-04-21T20:25:47.422Z,18.70
2019-04-21T20:28:21.167Z,18.70
2019-04-21T20:30:58.360Z,18.70
2019-04-21T20:33:46.908Z,18.60
2019-04-21T20:36:15.833Z,18.40
2019-04-21T20:38:19.337Z,18.30
2019-04-21T20:40:51.026Z,18.30
2019-04-21T20:43:30.988Z,18.30
2019-04-21T20:48:21.244Z,18.30
2019-04-21T20:51:00.244Z,18.20
2019-04-21T20:53:29.101Z,18.10
2019-04-21T20:55:53.074Z,18.10
2019-04-21T20:58:28.065Z,18.00
2019-04-21T21:03:29.118Z,18.10
2019-04-21T21:05:54.241Z,17.90
2019-04-21T21:08:32.765Z,18.00
2019-04-21T21:10:58.627Z,17.80
2019-04-21T21:13:33.414Z,17.60
2019-04-21T21:16:10.263Z,17.60
2019-04-21T21:18:52.013Z,17.50
2019-04-21T21:21:00.355Z,17.50
2019-04-21T21:23:33.475Z,17.60
2019-04-21T21:26:03.886Z,17.70
2019-04-21T21:28:27.727Z,17.60
2019-04-21T21:30:59.389Z,17.40
2019-04-21T21:33:27.566Z,17.30
2019-04-21T21:36:01.359Z,17.40
2019-04-21T21:38:30.789Z,17.30
2019-04-21T21:40:57.037Z,17.30
2019-04-21T21:43:19.218Z,17.10
2019-04-21T21:45:50.008Z,17.00
2019-04-21T21:48:27.469Z,16.80
2019-04-21T21:50:57.733Z,16.80
2019-04-21T21:53:19.777Z,16.80
2019-04-21T21:55:44.947Z,16.90
2019-04-21T21:58:14.298Z,16.90
2019-04-21T22:00:49.829Z,16.90
2019-04-21T22:03:24.458Z,16.80
2019-04-21T22:05:53.523Z,16.50
2019-04-21T22:08:16.343Z,16.60
2019-04-21T22:10:45.389Z,16.60
2019-04-21T22:13:17.760Z,16.60
2019-04-21T22:15:49.392Z,16.50
2019-04-21T22:18:28.515Z,16.50
2019-04-21T22:21:04.905Z,16.40
2019-04-21T22:23:26.013Z,16.40
2019-04-21T22:25:45.760Z,16.30
2019-04-21T22:28:15.828Z,16.20
2019-04-21T22:30:48.284Z,16.10
2019-04-21T22:33:17.747Z,16.00
2019-04-21T22:35:53.274Z,15.70
2019-04-21T22:38:28.371Z,15.70
2019-04-21T22:40:58.028Z,15.80
2019-04-21T22:43:22.313Z,15.70
2019-04-21T22:45:45.659Z,15.40
2019-04-21T22:48:18.211Z,15.30
2019-04-21T22:50:44.535Z,15.40
2019-04-21T22:53:15.476Z,15.30
2019-04-21T22:55:43.187Z,15.40
2019-04-21T22:58:11.659Z,15.30
2019-04-21T23:00:46.411Z,15.30
2019-04-21T23:03:16.410Z,15.30
2019-04-21T23:05:44.695Z,15.30
2019-04-21T23:08:13.046Z,15.30
2019-04-21T23:10:49.581Z,15.30
2019-04-21T23:13:17.833Z,15.30
2019-04-21T23:15:47.571Z,15.30
2019-04-21T23:18:30.754Z,15.20
2019-04-21T23:20:57.773Z,15.30
2019-04-21T23:23:37.099Z,15.20
2019-04-21T23:26:01.283Z,15.10
2019-04-21T23:28:39.081Z,15.00
2019-04-21T23:31:03.590Z,15.10
2019-04-21T23:33:16.418Z,15.20
2019-04-21T23:35:46.069Z,15.10
2019-04-21T23:38:14.734Z,15.10
2019-04-21T23:40:49.540Z,15.10
2019-04-21T23:43:19.428Z,15.00
2019-04-21T23:45:46.491Z,15.10
2019-04-21T23:48:25.924Z,15.10
2019-04-21T23:50:51.318Z,15.10
2019-04-21T23:53:15.369Z,15.10
2019-04-21T23:55:45.212Z,15.00
2019-04-21T23:58:21.395Z,15.00
